sensor_id;sensor_type;location;lat;lon;timestamp;P1;durP1;ratioP1;P2;durP2;ratioP2
54897;SDS011;40800;52.704;6.398;2022-09-13T00:01:36;21.98;;;19.58;;
54897;SDS011;40800;52.704;6.398;2022-09-13T00:04:02;26.58;;;19.70;;
54897;SDS011;40800;52.704;6.398;2022-09-13T00:06:28;20.58;;;18.48;;
54897;SDS011;40800;52.704;6.398;2022-09-13T00:08:54;21.80;;;19.55;;
54897;SDS011;40800;52.704;6.398;2022-09-13T00:11:21;21.48;;;19.20;;
54897;SDS011;40800;52.704;6.398;2022-09-13T00:13:48;20.05;;;17.48;;
54897;SDS011;40800;52.704;6.398;2022-09-13T00:16:15;19.80;;;17.80;;
54897;SDS011;40800;52.704;6.398;2022-09-13T00:18:42;18.92;;;17.13;;
54897;SDS011;40800;52.704;6.398;2022-09-13T00:21:09;22.63;;;20.33;;
54897;SDS011;40800;52.704;6.398;2022-09-13T00:23:36;21.60;;;19.60;;
54897;SDS011;40800;52.704;6.398;2022-09-13T00:26:07;24.83;;;22.13;;
54897;SDS011;40800;52.704;6.398;2022-09-13T00:28:35;21.55;;;19.35;;
54897;SDS011;40800;52.704;6.398;2022-09-13T00:31:05;21.65;;;19.45;;
54897;SDS011;40800;52.704;6.398;2022-09-13T00:33:32;23.35;;;21.05;;
54897;SDS011;40800;52.704;6.398;2022-09-13T00:35:58;24.00;;;19.58;;
54897;SDS011;40800;52.704;6.398;2022-09-13T00:38:28;19.98;;;17.88;;
54897;SDS011;40800;52.704;6.398;2022-09-13T00:40:54;21.13;;;19.17;;
54897;SDS011;40800;52.704;6.398;2022-09-13T00:43:20;22.38;;;20.08;;
54897;SDS011;40800;52.704;6.398;2022-09-13T00:48:50;21.17;;;18.98;;
54897;SDS011;40800;52.704;6.398;2022-09-13T00:51:25;21.52;;;19.25;;
54897;SDS011;40800;52.704;6.398;2022-09-13T00:53:51;20.67;;;18.67;;
54897;SDS011;40800;52.704;6.398;2022-09-13T00:56:24;20.95;;;18.95;;
54897;SDS011;40800;52.704;6.398;2022-09-13T00:58:57;22.17;;;20.08;;
54897;SDS011;40800;52.704;6.398;2022-09-13T01:01:32;26.42;;;23.65;;
54897;SDS011;40800;52.704;6.398;2022-09-13T01:04:04;25.77;;;23.17;;
54897;SDS011;40800;52.704;6.398;2022-09-13T01:06:30;26.05;;;23.42;;
54897;SDS011;40800;52.704;6.398;2022-09-13T01:09:00;24.50;;;21.90;;
54897;SDS011;40800;52.704;6.398;2022-09-13T01:11:29;25.63;;;22.92;;
54897;SDS011;40800;52.704;6.398;2022-09-13T01:14:24;24.08;;;21.58;;
54897;SDS011;40800;52.704;6.398;2022-09-13T01:16:51;25.35;;;22.90;;
54897;SDS011;40800;52.704;6.398;2022-09-13T01:19:18;26.65;;;23.95;;
54897;SDS011;40800;52.704;6.398;2022-09-13T01:38:53;34.03;;;30.33;;
54897;SDS011;40800;52.704;6.398;2022-09-13T01:44:54;36.50;;;30.65;;
54897;SDS011;40800;52.704;6.398;2022-09-13T01:52:44;32.95;;;29.58;;
54897;SDS011;40800;52.704;6.398;2022-09-13T01:55:33;33.65;;;30.20;;
54897;SDS011;40800;52.704;6.398;2022-09-13T01:58:12;33.55;;;29.63;;
54897;SDS011;40800;52.704;6.398;2022-09-13T02:00:54;35.80;;;32.00;;
54897;SDS011;40800;52.704;6.398;2022-09-13T02:03:54;43.20;;;36.92;;
54897;SDS011;40800;52.704;6.398;2022-09-13T02:06:26;38.67;;;33.97;;
54897;SDS011;40800;52.704;6.398;2022-09-13T02:09:07;39.95;;;35.08;;
54897;SDS011;40800;52.704;6.398;2022-09-13T02:11:38;51.10;;;39.67;;
54897;SDS011;40800;52.704;6.398;2022-09-13T02:14:11;47.80;;;39.05;;
54897;SDS011;40800;52.704;6.398;2022-09-13T02:16:47;41.28;;;36.08;;
54897;SDS011;40800;52.704;6.398;2022-09-13T02:19:57;47.25;;;39.88;;
54897;SDS011;40800;52.704;6.398;2022-09-13T02:24:58;55.28;;;41.97;;
54897;SDS011;40800;52.704;6.398;2022-09-13T02:27:34;48.97;;;42.55;;
54897;SDS011;40800;52.704;6.398;2022-09-13T02:30:06;53.05;;;43.80;;
54897;SDS011;40800;52.704;6.398;2022-09-13T02:32:37;60.28;;;48.30;;
54897;SDS011;40800;52.704;6.398;2022-09-13T02:35:13;59.23;;;46.53;;
54897;SDS011;40800;52.704;6.398;2022-09-13T02:37:45;56.55;;;45.30;;
54897;SDS011;40800;52.704;6.398;2022-09-13T02:40:26;55.90;;;45.83;;
54897;SDS011;40800;52.704;6.398;2022-09-13T02:43:00;50.40;;;43.53;;
54897;SDS011;40800;52.704;6.398;2022-09-13T02:45:32;56.00;;;46.15;;
54897;SDS011;40800;52.704;6.398;2022-09-13T02:48:08;54.63;;;45.67;;
54897;SDS011;40800;52.704;6.398;2022-09-13T02:53:18;48.08;;;42.30;;
54897;SDS011;40800;52.704;6.398;2022-09-13T02:56:01;54.65;;;43.95;;
54897;SDS011;40800;52.704;6.398;2022-09-13T03:01:27;48.28;;;42.40;;
54897;SDS011;40800;52.704;6.398;2022-09-13T03:03:53;52.83;;;44.65;;
54897;SDS011;40800;52.704;6.398;2022-09-13T03:06:22;50.40;;;43.03;;
54897;SDS011;40800;52.704;6.398;2022-09-13T03:08:49;58.03;;;44.20;;
54897;SDS011;40800;52.704;6.398;2022-09-13T03:25:18;59.83;;;48.55;;
54897;SDS011;40800;52.704;6.398;2022-09-13T03:31:03;60.90;;;49.13;;
54897;SDS011;40800;52.704;6.398;2022-09-13T03:36:26;65.75;;;49.80;;
54897;SDS011;40800;52.704;6.398;2022-09-13T03:41:29;64.93;;;51.08;;
54897;SDS011;40800;52.704;6.398;2022-09-13T03:44:03;58.03;;;48.00;;
54897;SDS011;40800;52.704;6.398;2022-09-13T03:46:34;53.58;;;47.78;;
54897;SDS011;40800;52.704;6.398;2022-09-13T03:49:06;67.15;;;52.58;;
54897;SDS011;40800;52.704;6.398;2022-09-13T03:51:35;55.35;;;46.08;;
54897;SDS011;40800;52.704;6.398;2022-09-13T03:54:03;52.50;;;46.42;;
54897;SDS011;40800;52.704;6.398;2022-09-13T03:56:32;54.05;;;47.25;;
54897;SDS011;40800;52.704;6.398;2022-09-13T03:58:58;59.03;;;49.90;;
54897;SDS011;40800;52.704;6.398;2022-09-13T04:01:24;62.97;;;50.20;;
54897;SDS011;40800;52.704;6.398;2022-09-13T04:03:51;69.80;;;52.88;;
54897;SDS011;40800;52.704;6.398;2022-09-13T04:06:17;59.95;;;48.50;;
54897;SDS011;40800;52.704;6.398;2022-09-13T04:08:43;62.37;;;49.13;;
54897;SDS011;40800;52.704;6.398;2022-09-13T04:11:08;61.15;;;51.40;;
54897;SDS011;40800;52.704;6.398;2022-09-13T04:13:35;64.07;;;51.60;;
54897;SDS011;40800;52.704;6.398;2022-09-13T04:16:01;57.47;;;48.75;;
54897;SDS011;40800;52.704;6.398;2022-09-13T04:18:29;54.88;;;47.55;;
54897;SDS011;40800;52.704;6.398;2022-09-13T04:20:56;57.77;;;47.03;;
54897;SDS011;40800;52.704;6.398;2022-09-13T04:23:23;59.58;;;48.70;;
54897;SDS011;40800;52.704;6.398;2022-09-13T04:25:51;55.45;;;47.20;;
54897;SDS011;40800;52.704;6.398;2022-09-13T04:28:17;54.50;;;47.00;;
54897;SDS011;40800;52.704;6.398;2022-09-13T04:30:44;58.25;;;47.58;;
54897;SDS011;40800;52.704;6.398;2022-09-13T04:33:10;55.78;;;45.67;;
54897;SDS011;40800;52.704;6.398;2022-09-13T04:35:36;51.95;;;44.55;;
54897;SDS011;40800;52.704;6.398;2022-09-13T04:38:03;55.10;;;46.40;;
54897;SDS011;40800;52.704;6.398;2022-09-13T04:40:33;55.05;;;46.47;;
54897;SDS011;40800;52.704;6.398;2022-09-13T04:42:59;56.63;;;47.13;;
54897;SDS011;40800;52.704;6.398;2022-09-13T04:45:26;53.33;;;45.92;;
54897;SDS011;40800;52.704;6.398;2022-09-13T04:47:52;61.72;;;48.85;;
54897;SDS011;40800;52.704;6.398;2022-09-13T04:50:19;51.78;;;45.40;;
54897;SDS011;40800;52.704;6.398;2022-09-13T04:52:45;54.60;;;48.40;;
54897;SDS011;40800;52.704;6.398;2022-09-13T04:55:11;55.25;;;47.42;;
54897;SDS011;40800;52.704;6.398;2022-09-13T04:57:38;56.70;;;47.78;;
54897;SDS011;40800;52.704;6.398;2022-09-13T05:00:04;52.50;;;46.65;;
54897;SDS011;40800;52.704;6.398;2022-09-13T05:02:31;53.03;;;46.08;;
54897;SDS011;40800;52.704;6.398;2022-09-13T05:04:56;56.30;;;47.38;;
54897;SDS011;40800;52.704;6.398;2022-09-13T05:07:22;62.45;;;47.70;;
54897;SDS011;40800;52.704;6.398;2022-09-13T05:09:47;56.40;;;46.55;;
54897;SDS011;40800;52.704;6.398;2022-09-13T05:12:13;51.28;;;45.60;;
54897;SDS011;40800;52.704;6.398;2022-09-13T05:14:39;56.22;;;46.50;;
54897;SDS011;40800;52.704;6.398;2022-09-13T05:17:04;55.20;;;46.10;;
54897;SDS011;40800;52.704;6.398;2022-09-13T05:19:30;53.58;;;45.70;;
54897;SDS011;40800;52.704;6.398;2022-09-13T05:21:56;46.90;;;41.90;;
54897;SDS011;40800;52.704;6.398;2022-09-13T05:24:21;53.75;;;45.97;;
54897;SDS011;40800;52.704;6.398;2022-09-13T05:26:47;49.90;;;43.75;;
54897;SDS011;40800;52.704;6.398;2022-09-13T05:29:13;45.03;;;39.67;;
54897;SDS011;40800;52.704;6.398;2022-09-13T05:31:39;49.15;;;41.80;;
54897;SDS011;40800;52.704;6.398;2022-09-13T05:34:07;48.97;;;38.92;;
54897;SDS011;40800;52.704;6.398;2022-09-13T05:36:38;44.95;;;38.28;;
54897;SDS011;40800;52.704;6.398;2022-09-13T05:39:04;40.87;;;36.63;;
54897;SDS011;40800;52.704;6.398;2022-09-13T05:41:30;41.70;;;36.10;;
54897;SDS011;40800;52.704;6.398;2022-09-13T05:43:56;36.90;;;32.63;;
54897;SDS011;40800;52.704;6.398;2022-09-13T05:46:22;33.10;;;29.52;;
54897;SDS011;40800;52.704;6.398;2022-09-13T05:48:48;30.33;;;27.08;;
54897;SDS011;40800;52.704;6.398;2022-09-13T05:51:15;29.45;;;26.48;;
54897;SDS011;40800;52.704;6.398;2022-09-13T05:53:43;27.85;;;25.05;;
54897;SDS011;40800;52.704;6.398;2022-09-13T05:56:11;28.13;;;24.15;;
54897;SDS011;40800;52.704;6.398;2022-09-13T05:58:39;25.98;;;23.42;;
54897;SDS011;40800;52.704;6.398;2022-09-13T06:01:06;26.92;;;23.70;;
54897;SDS011;40800;52.704;6.398;2022-09-13T06:03:33;25.60;;;22.83;;
54897;SDS011;40800;52.704;6.398;2022-09-13T06:06:00;25.33;;;22.77;;
54897;SDS011;40800;52.704;6.398;2022-09-13T06:08:27;23.17;;;20.90;;
54897;SDS011;40800;52.704;6.398;2022-09-13T06:10:57;20.25;;;18.35;;
54897;SDS011;40800;52.704;6.398;2022-09-13T06:13:24;19.95;;;18.13;;
54897;SDS011;40800;52.704;6.398;2022-09-13T06:15:51;20.15;;;18.25;;
54897;SDS011;40800;52.704;6.398;2022-09-13T06:20:44;16.77;;;15.18;;
54897;SDS011;40800;52.704;6.398;2022-09-13T06:23:10;16.50;;;14.90;;
54897;SDS011;40800;52.704;6.398;2022-09-13T06:25:36;14.93;;;13.70;;
54897;SDS011;40800;52.704;6.398;2022-09-13T06:28:02;14.98;;;13.38;;
54897;SDS011;40800;52.704;6.398;2022-09-13T06:30:28;14.37;;;12.07;;
54897;SDS011;40800;52.704;6.398;2022-09-13T06:32:54;12.88;;;11.73;;
54897;SDS011;40800;52.704;6.398;2022-09-13T06:35:20;12.32;;;11.13;;
54897;SDS011;40800;52.704;6.398;2022-09-13T06:37:46;12.23;;;11.27;;
54897;SDS011;40800;52.704;6.398;2022-09-13T06:40:12;12.30;;;11.10;;
54897;SDS011;40800;52.704;6.398;2022-09-13T06:42:37;12.95;;;10.73;;
54897;SDS011;40800;52.704;6.398;2022-09-13T06:45:03;12.82;;;10.63;;
54897;SDS011;40800;52.704;6.398;2022-09-13T06:47:30;11.57;;;10.38;;
54897;SDS011;40800;52.704;6.398;2022-09-13T06:49:56;10.35;;;9.27;;
54897;SDS011;40800;52.704;6.398;2022-09-13T06:52:22;10.57;;;9.57;;
54897;SDS011;40800;52.704;6.398;2022-09-13T06:54:48;10.57;;;9.63;;
54897;SDS011;40800;52.704;6.398;2022-09-13T06:57:14;11.38;;;9.38;;
54897;SDS011;40800;52.704;6.398;2022-09-13T06:59:40;10.48;;;9.50;;
54897;SDS011;40800;52.704;6.398;2022-09-13T07:02:06;9.82;;;8.95;;
54897;SDS011;40800;52.704;6.398;2022-09-13T07:04:31;9.35;;;8.45;;
54897;SDS011;40800;52.704;6.398;2022-09-13T07:06:57;10.35;;;9.25;;
54897;SDS011;40800;52.704;6.398;2022-09-13T07:09:24;10.40;;;9.23;;
54897;SDS011;40800;52.704;6.398;2022-09-13T07:11:50;8.90;;;8.00;;
54897;SDS011;40800;52.704;6.398;2022-09-13T07:14:19;8.63;;;7.93;;
54897;SDS011;40800;52.704;6.398;2022-09-13T07:16:49;9.07;;;8.35;;
54897;SDS011;40800;52.704;6.398;2022-09-13T07:19:26;10.65;;;9.60;;
54897;SDS011;40800;52.704;6.398;2022-09-13T07:21:53;9.75;;;8.80;;
54897;SDS011;40800;52.704;6.398;2022-09-13T07:24:19;9.88;;;8.95;;
54897;SDS011;40800;52.704;6.398;2022-09-13T07:26:46;9.82;;;8.80;;
54897;SDS011;40800;52.704;6.398;2022-09-13T07:29:12;10.38;;;9.15;;
54897;SDS011;40800;52.704;6.398;2022-09-13T07:31:41;10.70;;;9.60;;
54897;SDS011;40800;52.704;6.398;2022-09-13T07:34:12;10.10;;;9.18;;
54897;SDS011;40800;52.704;6.398;2022-09-13T07:36:40;10.27;;;9.35;;
54897;SDS011;40800;52.704;6.398;2022-09-13T07:39:06;10.27;;;9.30;;
54897;SDS011;40800;52.704;6.398;2022-09-13T07:41:32;10.65;;;9.35;;
54897;SDS011;40800;52.704;6.398;2022-09-13T07:43:59;12.65;;;9.60;;
54897;SDS011;40800;52.704;6.398;2022-09-13T07:46:26;10.40;;;9.40;;
54897;SDS011;40800;52.704;6.398;2022-09-13T07:48:56;10.02;;;9.23;;
54897;SDS011;40800;52.704;6.398;2022-09-13T07:51:23;10.60;;;9.60;;
54897;SDS011;40800;52.704;6.398;2022-09-13T07:53:51;10.65;;;9.50;;
54897;SDS011;40800;52.704;6.398;2022-09-13T07:56:21;10.20;;;9.25;;
54897;SDS011;40800;52.704;6.398;2022-09-13T07:58:49;12.55;;;9.70;;
54897;SDS011;40800;52.704;6.398;2022-09-13T08:01:17;11.75;;;9.77;;
54897;SDS011;40800;52.704;6.398;2022-09-13T08:06:18;10.57;;;9.68;;
54897;SDS011;40800;52.704;6.398;2022-09-13T08:08:44;11.20;;;10.20;;
54897;SDS011;40800;52.704;6.398;2022-09-13T08:11:13;10.82;;;9.85;;
54897;SDS011;40800;52.704;6.398;2022-09-13T08:13:43;10.63;;;9.40;;
54897;SDS011;40800;52.704;6.398;2022-09-13T08:16:09;10.25;;;9.18;;
54897;SDS011;40800;52.704;6.398;2022-09-13T08:18:35;10.05;;;9.05;;
54897;SDS011;40800;52.704;6.398;2022-09-13T08:21:00;10.15;;;9.23;;
54897;SDS011;40800;52.704;6.398;2022-09-13T08:23:26;12.02;;;8.25;;
54897;SDS011;40800;52.704;6.398;2022-09-13T08:25:52;8.93;;;7.93;;
54897;SDS011;40800;52.704;6.398;2022-09-13T08:28:18;9.65;;;7.85;;
54897;SDS011;40800;52.704;6.398;2022-09-13T08:30:46;9.52;;;7.55;;
54897;SDS011;40800;52.704;6.398;2022-09-13T08:33:12;8.25;;;7.20;;
54897;SDS011;40800;52.704;6.398;2022-09-13T08:35:38;7.80;;;7.10;;
54897;SDS011;40800;52.704;6.398;2022-09-13T08:38:05;8.13;;;6.82;;
54897;SDS011;40800;52.704;6.398;2022-09-13T08:40:31;10.57;;;6.50;;
54897;SDS011;40800;52.704;6.398;2022-09-13T08:43:16;7.07;;;6.13;;
54897;SDS011;40800;52.704;6.398;2022-09-13T08:45:59;7.13;;;6.22;;
54897;SDS011;40800;52.704;6.398;2022-09-13T08:48:32;8.52;;;5.75;;
54897;SDS011;40800;52.704;6.398;2022-09-13T08:51:03;9.73;;;5.90;;
54897;SDS011;40800;52.704;6.398;2022-09-13T08:53:32;9.77;;;5.60;;
54897;SDS011;40800;52.704;6.398;2022-09-13T09:01:28;8.57;;;5.32;;
54897;SDS011;40800;52.704;6.398;2022-09-13T09:09:38;5.18;;;4.10;;
54897;SDS011;40800;52.704;6.398;2022-09-13T09:12:31;8.43;;;4.00;;
54897;SDS011;40800;52.704;6.398;2022-09-13T09:15:20;10.38;;;4.45;;
54897;SDS011;40800;52.704;6.398;2022-09-13T09:17:50;6.53;;;4.00;;
54897;SDS011;40800;52.704;6.398;2022-09-13T09:20:30;5.68;;;3.20;;
54897;SDS011;40800;52.704;6.398;2022-09-13T09:23:02;7.15;;;2.90;;
54897;SDS011;40800;52.704;6.398;2022-09-13T09:25:31;6.32;;;3.10;;
54897;SDS011;40800;52.704;6.398;2022-09-13T09:30:28;5.43;;;3.13;;
54897;SDS011;40800;52.704;6.398;2022-09-13T09:33:17;6.35;;;2.80;;
54897;SDS011;40800;52.704;6.398;2022-09-13T09:35:58;8.35;;;2.47;;
54897;SDS011;40800;52.704;6.398;2022-09-13T09:38:32;6.00;;;2.50;;
54897;SDS011;40800;52.704;6.398;2022-09-13T09:46:40;5.22;;;1.90;;
54897;SDS011;40800;52.704;6.398;2022-09-13T09:52:01;2.58;;;1.83;;
54897;SDS011;40800;52.704;6.398;2022-09-13T09:54:31;7.40;;;2.10;;
54897;SDS011;40800;52.704;6.398;2022-09-13T09:56:59;4.28;;;1.67;;
54897;SDS011;40800;52.704;6.398;2022-09-13T09:59:29;5.75;;;2.03;;
54897;SDS011;40800;52.704;6.398;2022-09-13T10:01:56;3.45;;;1.60;;
54897;SDS011;40800;52.704;6.398;2022-09-13T10:04:28;2.60;;;1.30;;
54897;SDS011;40800;52.704;6.398;2022-09-13T10:07:40;3.65;;;1.48;;
54897;SDS011;40800;52.704;6.398;2022-09-13T10:10:22;3.53;;;1.80;;
54897;SDS011;40800;52.704;6.398;2022-09-13T10:12:47;3.42;;;1.33;;
54897;SDS011;40800;52.704;6.398;2022-09-13T10:15:16;4.18;;;1.70;;
54897;SDS011;40800;52.704;6.398;2022-09-13T10:18:00;3.00;;;1.65;;
54897;SDS011;40800;52.704;6.398;2022-09-13T10:20:36;3.80;;;1.48;;
54897;SDS011;40800;52.704;6.398;2022-09-13T10:25:40;7.53;;;1.50;;
54897;SDS011;40800;52.704;6.398;2022-09-13T10:28:15;2.60;;;1.17;;
54897;SDS011;40800;52.704;6.398;2022-09-13T10:30:45;5.35;;;1.50;;
54897;SDS011;40800;52.704;6.398;2022-09-13T10:35:54;2.58;;;1.20;;
54897;SDS011;40800;52.704;6.398;2022-09-13T10:38:32;4.05;;;1.08;;
54897;SDS011;40800;52.704;6.398;2022-09-13T10:41:01;3.88;;;1.20;;
54897;SDS011;40800;52.704;6.398;2022-09-13T10:43:30;2.45;;;1.10;;
54897;SDS011;40800;52.704;6.398;2022-09-13T10:45:57;6.18;;;1.30;;
54897;SDS011;40800;52.704;6.398;2022-09-13T10:48:27;4.20;;;1.60;;
54897;SDS011;40800;52.704;6.398;2022-09-13T10:51:11;3.67;;;1.10;;
54897;SDS011;40800;52.704;6.398;2022-09-13T10:53:45;3.10;;;1.15;;
54897;SDS011;40800;52.704;6.398;2022-09-13T10:56:24;3.13;;;1.03;;
54897;SDS011;40800;52.704;6.398;2022-09-13T10:58:51;2.17;;;1.00;;
54897;SDS011;40800;52.704;6.398;2022-09-13T11:07:16;3.30;;;1.20;;
54897;SDS011;40800;52.704;6.398;2022-09-13T11:15:57;5.65;;;1.30;;
54897;SDS011;40800;52.704;6.398;2022-09-13T11:30:19;4.10;;;1.00;;
54897;SDS011;40800;52.704;6.398;2022-09-13T11:35:46;3.40;;;1.00;;
54897;SDS011;40800;52.704;6.398;2022-09-13T11:40:58;1.15;;;0.65;;
54897;SDS011;40800;52.704;6.398;2022-09-13T11:43:40;3.85;;;1.10;;
54897;SDS011;40800;52.704;6.398;2022-09-13T11:55:05;2.80;;;1.00;;
54897;SDS011;40800;52.704;6.398;2022-09-13T11:57:39;5.75;;;1.58;;
54897;SDS011;40800;52.704;6.398;2022-09-13T12:05:44;5.38;;;1.20;;
54897;SDS011;40800;52.704;6.398;2022-09-13T12:08:21;2.63;;;0.88;;
54897;SDS011;40800;52.704;6.398;2022-09-13T12:10:53;4.30;;;1.20;;
54897;SDS011;40800;52.704;6.398;2022-09-13T12:13:24;2.58;;;1.02;;
54897;SDS011;40800;52.704;6.398;2022-09-13T12:15:54;3.60;;;1.13;;
54897;SDS011;40800;52.704;6.398;2022-09-13T12:18:31;4.20;;;1.48;;
54897;SDS011;40800;52.704;6.398;2022-09-13T12:23:49;3.53;;;1.33;;
54897;SDS011;40800;52.704;6.398;2022-09-13T12:29:06;3.35;;;1.20;;
54897;SDS011;40800;52.704;6.398;2022-09-13T12:31:46;5.43;;;1.30;;
54897;SDS011;40800;52.704;6.398;2022-09-13T12:34:27;3.20;;;1.10;;
54897;SDS011;40800;52.704;6.398;2022-09-13T12:37:11;3.22;;;1.15;;
54897;SDS011;40800;52.704;6.398;2022-09-13T12:50:45;4.43;;;1.50;;
54897;SDS011;40800;52.704;6.398;2022-09-13T12:53:33;4.97;;;1.48;;
54897;SDS011;40800;52.704;6.398;2022-09-13T12:59:22;3.65;;;1.08;;
54897;SDS011;40800;52.704;6.398;2022-09-13T13:01:59;8.10;;;1.52;;
54897;SDS011;40800;52.704;6.398;2022-09-13T13:04:49;4.53;;;1.25;;
54897;SDS011;40800;52.704;6.398;2022-09-13T13:07:19;4.13;;;1.35;;
54897;SDS011;40800;52.704;6.398;2022-09-13T13:09:47;5.13;;;1.27;;
54897;SDS011;40800;52.704;6.398;2022-09-13T13:12:31;3.25;;;1.00;;
54897;SDS011;40800;52.704;6.398;2022-09-13T13:15:01;3.60;;;1.27;;
54897;SDS011;40800;52.704;6.398;2022-09-13T13:17:49;4.78;;;1.60;;
54897;SDS011;40800;52.704;6.398;2022-09-13T13:31:09;5.10;;;1.40;;
54897;SDS011;40800;52.704;6.398;2022-09-13T13:33:48;4.15;;;1.20;;
54897;SDS011;40800;52.704;6.398;2022-09-13T13:36:29;4.45;;;1.40;;
54897;SDS011;40800;52.704;6.398;2022-09-13T13:41:52;3.90;;;1.08;;
54897;SDS011;40800;52.704;6.398;2022-09-13T13:46:48;3.23;;;1.10;;
54897;SDS011;40800;52.704;6.398;2022-09-13T13:55:22;4.55;;;1.20;;
54897;SDS011;40800;52.704;6.398;2022-09-13T14:10:35;4.30;;;1.40;;
54897;SDS011;40800;52.704;6.398;2022-09-13T14:13:34;4.47;;;1.15;;
54897;SDS011;40800;52.704;6.398;2022-09-13T14:18:35;3.28;;;1.20;;
54897;SDS011;40800;52.704;6.398;2022-09-13T14:21:23;3.25;;;1.13;;
54897;SDS011;40800;52.704;6.398;2022-09-13T14:24:07;8.77;;;1.50;;
54897;SDS011;40800;52.704;6.398;2022-09-13T14:26:45;7.15;;;1.60;;
54897;SDS011;40800;52.704;6.398;2022-09-13T14:29:14;7.68;;;1.80;;
54897;SDS011;40800;52.704;6.398;2022-09-13T14:31:46;9.50;;;1.52;;
54897;SDS011;40800;52.704;6.398;2022-09-13T14:34:25;5.25;;;1.20;;
54897;SDS011;40800;52.704;6.398;2022-09-13T14:36:54;4.22;;;1.50;;
54897;SDS011;40800;52.704;6.398;2022-09-13T14:39:22;4.88;;;1.30;;
54897;SDS011;40800;52.704;6.398;2022-09-13T14:41:48;5.10;;;1.20;;
54897;SDS011;40800;52.704;6.398;2022-09-13T14:44:28;4.07;;;1.20;;
54897;SDS011;40800;52.704;6.398;2022-09-13T14:47:05;3.35;;;1.08;;
54897;SDS011;40800;52.704;6.398;2022-09-13T14:49:40;3.15;;;1.05;;
54897;SDS011;40800;52.704;6.398;2022-09-13T14:52:18;3.70;;;1.23;;
54897;SDS011;40800;52.704;6.398;2022-09-13T14:54:50;4.03;;;1.30;;
54897;SDS011;40800;52.704;6.398;2022-09-13T14:57:25;3.92;;;1.10;;
54897;SDS011;40800;52.704;6.398;2022-09-13T14:59:57;12.55;;;1.70;;
54897;SDS011;40800;52.704;6.398;2022-09-13T15:02:52;5.57;;;1.50;;
54897;SDS011;40800;52.704;6.398;2022-09-13T15:05:27;5.30;;;1.45;;
54897;SDS011;40800;52.704;6.398;2022-09-13T15:07:56;6.10;;;1.15;;
54897;SDS011;40800;52.704;6.398;2022-09-13T15:12:52;4.77;;;1.50;;
54897;SDS011;40800;52.704;6.398;2022-09-13T15:20:50;5.80;;;1.50;;
54897;SDS011;40800;52.704;6.398;2022-09-13T15:23:30;3.80;;;1.33;;
54897;SDS011;40800;52.704;6.398;2022-09-13T15:26:11;4.85;;;1.70;;
54897;SDS011;40800;52.704;6.398;2022-09-13T15:31:21;6.95;;;1.45;;
54897;SDS011;40800;52.704;6.398;2022-09-13T15:33:48;6.53;;;1.58;;
54897;SDS011;40800;52.704;6.398;2022-09-13T15:36:45;4.75;;;1.58;;
54897;SDS011;40800;52.704;6.398;2022-09-13T15:39:21;5.35;;;1.40;;
54897;SDS011;40800;52.704;6.398;2022-09-13T15:41:56;8.35;;;2.25;;
54897;SDS011;40800;52.704;6.398;2022-09-13T15:44:24;5.90;;;1.98;;
54897;SDS011;40800;52.704;6.398;2022-09-13T15:46:54;4.30;;;1.15;;
54897;SDS011;40800;52.704;6.398;2022-09-13T15:49:24;5.15;;;1.50;;
54897;SDS011;40800;52.704;6.398;2022-09-13T15:51:53;6.43;;;1.60;;
54897;SDS011;40800;52.704;6.398;2022-09-13T15:54:21;4.93;;;1.42;;
54897;SDS011;40800;52.704;6.398;2022-09-13T15:56:47;5.25;;;1.45;;
54897;SDS011;40800;52.704;6.398;2022-09-13T15:59:17;5.38;;;1.70;;
54897;SDS011;40800;52.704;6.398;2022-09-13T16:01:44;6.07;;;1.38;;
54897;SDS011;40800;52.704;6.398;2022-09-13T16:04:12;6.80;;;1.73;;
54897;SDS011;40800;52.704;6.398;2022-09-13T16:06:38;4.40;;;1.60;;
54897;SDS011;40800;52.704;6.398;2022-09-13T16:09:10;5.33;;;1.80;;
54897;SDS011;40800;52.704;6.398;2022-09-13T16:11:40;7.03;;;1.70;;
54897;SDS011;40800;52.704;6.398;2022-09-13T16:14:05;6.47;;;1.60;;
54897;SDS011;40800;52.704;6.398;2022-09-13T16:16:31;4.17;;;1.80;;
54897;SDS011;40800;52.704;6.398;2022-09-13T16:18:56;8.13;;;1.97;;
54897;SDS011;40800;52.704;6.398;2022-09-13T16:21:22;5.90;;;1.67;;
54897;SDS011;40800;52.704;6.398;2022-09-13T16:23:48;6.87;;;1.50;;
54897;SDS011;40800;52.704;6.398;2022-09-13T16:26:13;4.93;;;1.50;;
54897;SDS011;40800;52.704;6.398;2022-09-13T16:28:39;6.07;;;2.13;;
54897;SDS011;40800;52.704;6.398;2022-09-13T16:31:04;7.43;;;1.93;;
54897;SDS011;40800;52.704;6.398;2022-09-13T16:33:30;5.33;;;1.30;;
54897;SDS011;40800;52.704;6.398;2022-09-13T16:35:56;5.47;;;1.70;;
54897;SDS011;40800;52.704;6.398;2022-09-13T16:38:21;6.83;;;1.63;;
54897;SDS011;40800;52.704;6.398;2022-09-13T16:40:47;7.10;;;1.90;;
54897;SDS011;40800;52.704;6.398;2022-09-13T16:43:13;6.40;;;1.73;;
54897;SDS011;40800;52.704;6.398;2022-09-13T16:45:39;7.60;;;1.65;;
54897;SDS011;40800;52.704;6.398;2022-09-13T16:48:06;4.45;;;1.50;;
54897;SDS011;40800;52.704;6.398;2022-09-13T16:50:32;9.63;;;1.75;;
54897;SDS011;40800;52.704;6.398;2022-09-13T16:52:57;6.10;;;1.45;;
54897;SDS011;40800;52.704;6.398;2022-09-13T16:55:23;4.75;;;1.85;;
54897;SDS011;40800;52.704;6.398;2022-09-13T16:57:50;6.15;;;1.50;;
54897;SDS011;40800;52.704;6.398;2022-09-13T17:00:16;8.35;;;1.80;;
54897;SDS011;40800;52.704;6.398;2022-09-13T17:02:44;8.43;;;1.73;;
54897;SDS011;40800;52.704;6.398;2022-09-13T17:05:10;8.05;;;1.80;;
54897;SDS011;40800;52.704;6.398;2022-09-13T17:07:36;6.57;;;1.63;;
54897;SDS011;40800;52.704;6.398;2022-09-13T17:10:03;26.15;;;2.92;;
54897;SDS011;40800;52.704;6.398;2022-09-13T17:12:31;11.18;;;2.00;;
54897;SDS011;40800;52.704;6.398;2022-09-13T17:14:57;6.57;;;1.67;;
54897;SDS011;40800;52.704;6.398;2022-09-13T17:17:23;4.35;;;1.60;;
54897;SDS011;40800;52.704;6.398;2022-09-13T17:19:48;5.35;;;1.60;;
54897;SDS011;40800;52.704;6.398;2022-09-13T17:22:14;10.30;;;1.70;;
54897;SDS011;40800;52.704;6.398;2022-09-13T17:24:40;10.40;;;1.88;;
54897;SDS011;40800;52.704;6.398;2022-09-13T17:27:06;7.77;;;1.53;;
54897;SDS011;40800;52.704;6.398;2022-09-13T17:29:33;7.95;;;1.67;;
54897;SDS011;40800;52.704;6.398;2022-09-13T17:31:59;5.05;;;1.50;;
54897;SDS011;40800;52.704;6.398;2022-09-13T17:34:27;7.03;;;2.00;;
54897;SDS011;40800;52.704;6.398;2022-09-13T17:36:54;6.70;;;1.60;;
54897;SDS011;40800;52.704;6.398;2022-09-13T17:39:21;10.73;;;1.70;;
54897;SDS011;40800;52.704;6.398;2022-09-13T17:41:49;6.55;;;1.83;;
54897;SDS011;40800;52.704;6.398;2022-09-13T17:44:15;4.28;;;1.45;;
54897;SDS011;40800;52.704;6.398;2022-09-13T17:46:41;7.65;;;1.77;;
54897;SDS011;40800;52.704;6.398;2022-09-13T17:49:07;5.45;;;1.50;;
54897;SDS011;40800;52.704;6.398;2022-09-13T17:51:33;4.13;;;1.45;;
54897;SDS011;40800;52.704;6.398;2022-09-13T17:54:00;5.20;;;1.60;;
54897;SDS011;40800;52.704;6.398;2022-09-13T17:56:28;11.35;;;2.20;;
54897;SDS011;40800;52.704;6.398;2022-09-13T17:59:13;8.77;;;1.80;;
54897;SDS011;40800;52.704;6.398;2022-09-13T18:01:42;7.10;;;1.88;;
54897;SDS011;40800;52.704;6.398;2022-09-13T18:04:10;5.28;;;1.60;;
54897;SDS011;40800;52.704;6.398;2022-09-13T18:06:36;8.30;;;1.67;;
54897;SDS011;40800;52.704;6.398;2022-09-13T18:09:06;4.68;;;1.58;;
54897;SDS011;40800;52.704;6.398;2022-09-13T18:11:33;6.38;;;1.50;;
54897;SDS011;40800;52.704;6.398;2022-09-13T18:14:00;5.78;;;1.70;;
54897;SDS011;40800;52.704;6.398;2022-09-13T18:16:26;6.27;;;1.80;;
54897;SDS011;40800;52.704;6.398;2022-09-13T18:21:20;6.65;;;1.80;;